Kenosha Regional Airport
KENW : now visible

Airfield :











YOU CAN JOIN US ON...

 
LOGIN :

Register | Disclaimer

   EN    FR    IT 

 









Legend :    VFR   Marginal VFR   IFR   Intensive IFR   Very Intensive IFR
Visi :
Ceiling :
>= 8 km
>= 3000ft
5 to 8 km
1000 to 3000 ft
1500m to 5 km
500 to 1000 ft
800 to 1500m
200 to 500 ft
< 800m
< 200 ft
Symbols :   Thunderstorms  Fog  Heavy snow  Heavy precipitations  Wind > 20 kt






- Airport Elevation : 742 ft


KENW - Kenosha Regional

CURRENT METAR :
  • 152353Z 00000KT 10SM OVC070 02/M01 A2957 RMK AO2 SLP018 T00171006 10033 20017 53023

EXPIRED METARs :
  • 152253Z 09003KT 10SM OVC070 02/M01 A2954 RMK AO2 SLP009 T00171006
  • 152153Z 07005KT 10SM OVC065 03/M01 A2952 RMK AO2 SLP003 T00281006
  • 152053Z 11004KT 10SM OVC070 03/M02 A2950 RMK AO2 SLP994 T00331022 53013

TAF KENW
Valid from the 16 at 00:00 until the 17 at 00:00 UTC


152342Z 1600/1624 VRB03KT P6SM SCT040 OVC070
FM160400 28005KT 3SM -SN OVC030
FM160700 28005KT 2SM -SN BR OVC017
FM161000 27007KT 1 1/2SM -SN BR OVC008
FM161400 32009KT P6SM VCSH OVC007
FM162100 31011KT P6SM OVC010
KZAU FIR / North America



MET'MAP, your aeronautical weather chart ! - Copyright ORBIFLY December 2007 - Disclaimer

ORBIFLY MET'MAP TEAM :

Programming & Development : Alexandra Zaïnal
Concept & original design : Baudouin d'Aumeries
Assistance for programming : Marc-Olivier Méhu
Technical & hardware support : Manuel Goepfert

Contact : metmap@orbifly.com




SOURCES & CREDITS :

   NOAA       Earth
Advisory